Time;durP1;ratioP1;P1;durP2;ratioP2;P2;SDS_P1;SDS_P2;PMS_P1;PMS_P2;Temp;Humidity;BMP_temperature;BMP_pressure;BME280_temperature;BME280_humidity;BME280_pressure;Samples;Min_cycle;Max_cycle;Signal;HPM_P1;HPM_P2
2022/03/03 00:00:13;;;;;;;91.90;40.60;;;3.10;99.90;;;;;;5052905;28;20044;-74
2022/03/03 00:02:39;;;;;;;97.57;40.25;;;;;;;;;;5052386;28;20472;-74
2022/03/03 00:05:06;;;;;;;103.20;42.00;;;;;;;;;;5052552;28;20043;-74
2022/03/03 00:07:32;;;;;;;99.07;39.63;;;;;;;;;;5035958;28;20071;-74
2022/03/03 00:09:58;;;;;;;96.80;40.50;;;;;;;;;;5053056;28;20032;-74
2022/03/03 00:12:24;;;;;;;109.20;41.67;;;;;;;;;;5052530;28;20041;-74
2022/03/03 00:14:50;;;;;;;98.60;38.47;;;;;;;;;;5052284;28;20124;-74
2022/03/03 00:17:16;;;;;;;97.90;40.83;;;;;;;;;;5035815;28;20045;-74
2022/03/03 00:19:42;;;;;;;107.82;41.95;;;;;;;;;;5052576;28;20554;-74
2022/03/03 00:22:09;;;;;;;103.05;40.90;;;;;;;;;;5052328;28;20124;-74
2022/03/03 00:24:35;;;;;;;90.50;40.42;;;;;;;;;;5036226;28;20041;-74
2022/03/03 00:27:01;;;;;;;104.05;41.13;;;;;;;;;;5035676;28;20060;-74
2022/03/03 00:29:27;;;;;;;94.40;39.47;;;;;;;;;;5052459;28;20052;-74
2022/03/03 00:31:53;;;;;;;103.03;40.15;;;;;;;;;;5052171;28;20075;-74
2022/03/03 00:34:19;;;;;;;99.68;41.10;;;;;;;;;;5052081;28;20171;-74
2022/03/03 00:36:45;;;;;;;102.85;40.75;;;;;;;;;;5035525;28;20045;-72
2022/03/03 00:39:11;;;;;;;104.22;41.45;;;;;;;;;;5052379;28;20045;-72
2022/03/03 00:41:38;;;;;;;103.85;41.25;;;;;;;;;;5051952;28;20178;-72
2022/03/03 00:44:06;;;;;;;104.40;41.63;;;;;;;;;;5035795;28;20504;-72
2022/03/03 00:46:33;;;;;;;97.38;40.88;;;2.40;99.90;;;;;;5048903;28;20124;-73
2022/03/03 00:48:59;;;;;;;112.47;44.13;;;;;;;;;;5051923;28;20048;-73
2022/03/03 00:51:25;;;;;;;108.13;43.45;;;;;;;;;;5035417;28;20123;-73
2022/03/03 00:53:52;;;;;;;104.72;42.60;;;;;;;;;;5051859;28;20485;-73
2022/03/03 00:56:18;;;;;;;99.50;42.47;;;;;;;;;;5035578;28;20102;-73
2022/03/03 00:58:45;;;;;;;99.53;41.88;;;;;;;;;;5035324;28;20068;-73
2022/03/03 01:01:11;;;;;;;98.40;40.83;;;;;;;;;;5051848;28;20041;-74
2022/03/03 01:03:37;;;;;;;101.35;41.17;;;;;;;;;;5051995;28;20033;-74
2022/03/03 01:06:03;;;;;;;109.00;43.38;;;;;;;;;;5051727;28;20072;-74
2022/03/03 01:08:29;;;;;;;95.20;39.67;;;;;;;;;;5051693;28;20048;-74
2022/03/03 01:10:55;;;;;;;98.38;41.50;;;;;;;;;;5051960;28;20041;-74
2022/03/03 01:13:22;;;;;;;104.22;40.67;;;;;;;;;;5051761;28;20489;-74
2022/03/03 01:15:49;;;;;;;116.72;45.03;;;2.50;99.90;;;;;;5037064;28;20045;-74
2022/03/03 01:18:16;;;;;;;108.22;42.35;;;;;;;;;;5019747;28;20404;-74
2022/03/03 01:20:42;;;;;;;109.28;41.90;;;;;;;;;;5019644;28;20053;-74
2022/03/03 01:23:08;;;;;;;105.45;42.72;;;;;;;;;;5043864;28;20548;-74
2022/03/03 01:25:34;;;;;;;98.38;40.83;;;;;;;;;;5055748;28;20092;-74
2022/03/03 01:28:00;;;;;;;101.35;41.92;;;;;;;;;;5055639;28;20037;-74
2022/03/03 01:30:26;;;;;;;116.13;43.15;;;;;;;;;;5055736;28;20493;-74
2022/03/03 01:32:53;;;;;;;97.65;41.50;;;;;;;;;;5055398;28;20489;-74
2022/03/03 01:35:19;;;;;;;98.13;42.13;;;;;;;;;;5055586;28;20512;-74
2022/03/03 01:37:45;;;;;;;114.60;43.30;;;;;;;;;;5055430;28;20040;-74
2022/03/03 01:40:11;;;;;;;109.28;42.92;;;;;;;;;;5039464;28;20433;-74
2022/03/03 01:42:37;;;;;;;112.03;43.33;;;;;;;;;;5055274;28;20041;-74
2022/03/03 01:45:04;;;;;;;106.93;42.47;;;2.20;99.90;;;;;;5055743;28;20469;-74
2022/03/03 01:47:30;;;;;;;110.10;42.53;;;3.30;99.90;;;;;;5055404;28;20069;-74
2022/03/03 01:49:57;;;;;;;105.95;42.33;;;2.40;99.90;;;;;;5055520;28;20079;-74
2022/03/03 01:52:23;;;;;;;107.90;42.78;;;2.50;99.90;;;;;;5038734;28;20047;-74
2022/03/03 01:54:50;;;;;;;103.75;41.80;;;;;;;;;;5055756;28;20037;-74
2022/03/03 01:57:17;;;;;;;105.13;41.75;;;2.30;99.90;;;;;;5055034;28;20067;-74
2022/03/03 01:59:44;;;;;;;106.20;40.50;;;;;;;;;;5055740;28;20095;-74
2022/03/03 02:02:10;;;;;;;98.53;41.45;;;;;;;;;;5054859;28;20477;-74
2022/03/03 02:04:40;;;;;;;106.18;41.33;;;;;;;;;;5055158;28;20124;-74
2022/03/03 02:07:07;;;;;;;110.05;42.65;;;2.40;99.90;;;;;;5055003;28;20481;-74
2022/03/03 02:09:34;;;;;;;113.28;44.15;;;2.40;99.90;;;;;;5055137;28;20481;-74
2022/03/03 02:12:00;;;;;;;103.32;42.40;;;;;;;;;;5054903;28;20040;-74
2022/03/03 02:14:27;;;;;;;107.97;42.88;;;;;;;;;;5055057;28;20515;-74
2022/03/03 02:16:53;;;;;;;104.75;41.28;;;;;;;;;;5054615;28;20037;-74
2022/03/03 02:19:20;;;;;;;105.78;42.70;;;2.40;99.90;;;;;;5054932;28;20045;-74
2022/03/03 02:21:48;;;;;;;108.82;41.60;;;2.20;99.90;;;;;;5054221;28;20037;-74
2022/03/03 02:24:14;;;;;;;105.95;42.75;;;;;;;;;;5054850;28;20480;-74
2022/03/03 02:26:41;;;;;;;104.28;42.08;;;;;;;;;;5054012;28;20075;-74
2022/03/03 02:29:07;;;;;;;103.22;42.25;;;;;;;;;;5054647;28;20037;-75
2022/03/03 02:31:33;;;;;;;99.38;41.38;;;;;;;;;;5054269;28;20049;-75
2022/03/03 02:34:00;;;;;;;109.03;42.63;;;;;;;;;;5054609;28;20052;-75
2022/03/03 02:36:27;;;;;;;102.15;42.30;;;2.10;99.90;;;;;;5054579;28;20083;-75
2022/03/03 02:38:55;;;;;;;113.22;44.10;;;2.20;99.90;;;;;;5054413;28;20111;-75
2022/03/03 02:41:22;;;;;;;102.50;41.40;;;;;;;;;;5054062;28;20079;-75
2022/03/03 02:43:48;;;;;;;104.53;40.92;;;;;;;;;;5054395;28;20040;-74
2022/03/03 02:46:14;;;;;;;108.90;40.10;;;;;;;;;;5054174;28;20531;-75
2022/03/03 02:48:41;;;;;;;100.32;42.63;;;2.20;99.90;;;;;;5054053;28;20094;-74
2022/03/03 02:51:07;;;;;;;107.00;41.53;;;2.00;99.90;;;;;;5054206;28;20041;-74
2022/03/03 02:53:33;;;;;;;110.47;42.28;;;;;;;;;;5037390;28;20382;-74
2022/03/03 02:56:00;;;;;;;108.63;41.50;;;;;;;;;;5054204;28;20041;-74
2022/03/03 02:58:26;;;;;;;103.55;41.08;;;;;;;;;;5053939;28;20090;-74
2022/03/03 03:00:52;;;;;;;95.18;41.30;;;;;;;;;;5054052;28;20040;-73
2022/03/03 03:03:19;;;;;;;107.82;42.63;;;2.10;99.90;;;;;;5053699;28;20631;-73
2022/03/03 03:05:46;;;;;;;97.50;40.58;;;;;;;;;;5054042;28;20041;-69
2022/03/03 03:08:12;;;;;;;99.82;38.88;;;;;;;;;;5053570;28;20439;-74
2022/03/03 03:10:39;;;;;;;96.88;39.40;;;;;;;;;;5053949;28;20085;-73
2022/03/03 03:13:05;;;;;;;101.05;41.63;;;1.90;99.90;;;;;;5053025;28;20033;-74
2022/03/03 03:15:31;;;;;;;108.55;41.40;;;;;;;;;;5051829;28;20041;-74
2022/03/03 03:18:12;;;;;;;110.45;41.58;;;1.80;99.90;;;;;;5052543;28;20043;-74
2022/03/03 03:20:39;;;;;;;99.82;39.53;;;1.90;99.90;;;;;;5053892;28;20086;-74
2022/03/03 03:23:06;;;;;;;100.82;40.58;;;1.70;99.90;;;;;;5036657;28;20078;-74
2022/03/03 03:25:33;;;;;;;102.53;40.10;;;;;;;;;;5053566;28;20509;-74
2022/03/03 03:27:59;;;;;;;102.97;41.03;;;;;;;;;;5053615;28;20432;-74
2022/03/03 03:30:25;;;;;;;99.28;41.58;;;;;;;;;;5053835;28;20128;-74
2022/03/03 03:32:51;;;;;;;100.18;39.83;;;;;;;;;;5052972;28;20091;-74
2022/03/03 03:35:17;;;;;;;98.72;39.88;;;;;;;;;;5053532;28;20049;-74
2022/03/03 03:37:43;;;;;;;95.57;40.13;;;;;;;;;;5035987;28;20072;-74
2022/03/03 03:40:10;;;;;;;100.50;39.45;;;;;;;;;;5053223;28;20045;-74
2022/03/03 03:42:36;;;;;;;100.38;40.67;;;;;;;;;;5052708;28;20089;-74
2022/03/03 03:45:02;;;;;;;99.13;39.78;;;;;;;;;;5053076;28;20124;-74
2022/03/03 03:47:28;;;;;;;104.00;39.38;;;;;;;;;;5053318;28;20489;-74
2022/03/03 03:49:54;;;;;;;96.88;41.28;;;;;;;;;;5053277;28;20037;-74
2022/03/03 03:52:20;;;;;;;99.80;40.03;;;;;;;;;;5036313;28;20037;-74
2022/03/03 03:54:46;;;;;;;93.10;37.83;;;;;;;;;;5036488;28;20495;-74
2022/03/03 03:57:12;;;;;;;92.68;39.17;;;;;;;;;;5052880;28;20047;-74
2022/03/03 03:59:38;;;;;;;97.57;41.58;;;;;;;;;;5052859;28;20051;-74
2022/03/03 04:02:04;;;;;;;99.60;40.53;;;;;;;;;;5052739;28;20491;-74
2022/03/03 04:04:30;;;;;;;102.57;39.70;;;;;;;;;;5052954;28;20033;-74
2022/03/03 04:06:57;;;;;;;97.50;40.67;;;;;;;;;;5053022;28;20036;-74
2022/03/03 04:09:23;;;;;;;96.93;38.72;;;;;;;;;;5052620;28;20045;-74
2022/03/03 04:11:49;;;;;;;99.70;40.42;;;;;;;;;;5052356;28;20048;-74
2022/03/03 04:14:16;;;;;;;96.70;40.22;;;;;;;;;;5051987;28;20040;-74
2022/03/03 04:16:44;;;;;;;109.65;40.85;;;;;;;;;;5053076;28;20049;-74
2022/03/03 04:19:10;;;;;;;96.88;41.00;;;;;;;;;;5077453;28;20043;-74
2022/03/03 04:21:36;;;;;;;91.03;39.50;;;;;;;;;;5045162;28;20041;-74
2022/03/03 04:24:03;;;;;;;90.75;38.38;;;;;;;;;;5073106;28;20120;-74
2022/03/03 04:26:29;;;;;;;98.45;40.63;;;;;;;;;;5036124;28;20076;-74
2022/03/03 04:28:55;;;;;;;92.60;39.55;;;;;;;;;;5046712;28;20466;-74
2022/03/03 04:31:21;;;;;;;85.57;39.53;;;;;;;;;;5036533;28;20037;-74
2022/03/03 04:33:47;;;;;;;90.97;39.33;;;;;;;;;;5032016;28;20505;-74
2022/03/03 04:36:14;;;;;;;91.03;39.13;;;;;;;;;;5032451;28;20092;-74
2022/03/03 04:38:40;;;;;;;94.55;39.22;;;;;;;;;;5035114;28;20080;-74
2022/03/03 04:41:06;;;;;;;98.70;39.65;;;;;;;;;;5033238;28;20040;-74
2022/03/03 04:43:32;;;;;;;89.40;39.97;;;;;;;;;;5016315;28;20523;-74
2022/03/03 04:45:58;;;;;;;94.60;38.22;;;;;;;;;;5052182;28;20490;-74
2022/03/03 04:48:29;;;;;;;93.95;38.40;;;;;;;;;;5052219;28;20128;-74
2022/03/03 04:50:57;;;;;;;91.68;38.10;;;1.50;99.90;;;;;;5032331;28;20041;-74
2022/03/03 04:53:23;;;;;;;86.53;36.60;;;;;;;;;;5035629;28;20037;-74
2022/03/03 04:55:49;;;;;;;87.45;36.85;;;;;;;;;;5033910;28;20034;-74
2022/03/03 04:58:15;;;;;;;92.00;38.50;;;;;;;;;;5032190;28;20044;-74
2022/03/03 05:00:41;;;;;;;88.50;36.72;;;;;;;;;;5032369;28;20048;-74
2022/03/03 05:03:07;;;;;;;85.25;36.70;;;;;;;;;;5066898;28;20440;-74
2022/03/03 05:05:33;;;;;;;84.80;37.10;;;;;;;;;;5034017;28;20045;-74
2022/03/03 05:07:59;;;;;;;91.72;39.40;;;;;;;;;;5033932;28;20040;-75
2022/03/03 05:10:25;;;;;;;89.35;38.47;;;;;;;;;;5032243;28;20133;-74
2022/03/03 05:12:51;;;;;;;86.82;37.40;;;;;;;;;;5080959;28;20076;-74
2022/03/03 05:15:17;;;;;;;89.07;37.53;;;;;;;;;;5040774;28;20045;-74
2022/03/03 05:17:43;;;;;;;85.55;36.92;;;;;;;;;;5031927;28;20374;-74
2022/03/03 05:20:10;;;;;;;82.97;35.35;;;;;;;;;;5041121;28;20397;-74
2022/03/03 05:22:36;;;;;;;85.60;35.38;;;;;;;;;;5017995;28;20048;-74
2022/03/03 05:25:03;;;;;;;83.30;36.78;;;;;;;;;;5022875;28;20131;-74
2022/03/03 05:27:29;;;;;;;83.82;37.63;;;;;;;;;;5038340;28;20045;-74
2022/03/03 05:29:55;;;;;;;97.88;38.35;;;;;;;;;;5032302;28;20065;-74
2022/03/03 05:32:21;;;;;;;84.00;36.53;;;;;;;;;;5063013;28;20041;-74
2022/03/03 05:34:47;;;;;;;85.40;36.97;;;;;;;;;;5047814;28;20060;-74
2022/03/03 05:37:14;;;;;;;81.25;36.00;;;1.10;99.90;;;;;;5015528;28;20056;-74
2022/03/03 05:39:42;;;;;;;83.20;35.88;;;1.20;99.90;;;;;;5034007;28;20045;-74
2022/03/03 05:42:09;;;;;;;78.65;34.85;;;;;;;;;;5038725;28;20506;-74
2022/03/03 05:44:35;;;;;;;80.75;35.58;;;;;;;;;;5033088;28;20033;-74
2022/03/03 05:47:02;;;;;;;86.93;36.95;;;0.80;99.90;;;;;;5051546;28;20092;-74
2022/03/03 05:49:29;;;;;;;82.28;36.47;;;1.00;99.90;;;;;;5034802;28;20044;-74
2022/03/03 05:51:55;;;;;;;78.03;35.35;;;;;;;;;;5031980;28;20046;-74
2022/03/03 05:54:21;;;;;;;85.38;37.47;;;;;;;;;;5031708;28;20128;-74
2022/03/03 05:56:51;;;;;;;76.55;34.38;;;1.10;99.90;;;;;;5040755;28;20045;-74
2022/03/03 05:59:19;;;;;;;84.80;35.88;;;1.00;99.90;;;;;;5051103;28;20037;-74
2022/03/03 06:01:45;;;;;;;79.15;35.67;;;;;;;;;;5043899;28;20069;-74
2022/03/03 06:04:15;;;;;;;78.00;35.00;;;;;;;;;;5036147;28;20077;-74
2022/03/03 06:06:52;;;;;;;78.60;35.88;;;0.80;99.90;;;;;;5025450;28;20033;-74
2022/03/03 06:09:22;;;;;;;73.90;34.83;;;0.90;99.90;;;;;;5035148;28;20037;-74
2022/03/03 06:11:50;;;;;;;87.47;36.38;;;;;;;;;;5043588;28;20045;-73
2022/03/03 06:14:23;;;;;;;74.43;35.00;;;;;;;;;;5054981;28;20401;-74
2022/03/03 06:16:50;;;;;;;85.72;38.00;;;;;;;;;;5039923;28;20041;-73
2022/03/03 06:19:19;;;;;;;74.72;33.83;;;0.90;99.90;;;;;;5035166;28;20184;-74
2022/03/03 06:21:45;;;;;;;81.00;34.83;;;;;;;;;;5048102;28;20028;-73
2022/03/03 06:24:11;;;;;;;80.05;34.35;;;;;;;;;;5054883;28;20049;-74
2022/03/03 06:26:37;;;;;;;78.43;35.92;;;;;;;;;;5054384;28;20120;-74
2022/03/03 06:29:04;;;;;;;79.20;34.72;;;1.00;99.90;;;;;;5037055;28;20511;-73
2022/03/03 06:31:30;;;;;;;74.50;33.40;;;;;;;;;;5037817;28;20047;-73
2022/03/03 06:33:56;;;;;;;77.53;33.83;;;;;;;;;;5054482;28;20049;-74
2022/03/03 06:36:22;;;;;;;72.75;32.85;;;;;;;;;;5054094;28;20127;-75
2022/03/03 06:38:48;;;;;;;80.10;33.60;;;;;;;;;;5037577;28;20049;-73
2022/03/03 06:41:14;;;;;;;74.90;33.95;;;;;;;;;;5053465;28;20409;-74
2022/03/03 06:43:41;;;;;;;74.07;33.85;;;;;;;;;;5037741;28;20103;-73
2022/03/03 06:46:08;;;;;;;74.15;34.40;;;;;;;;;;5053436;28;20511;-73
2022/03/03 06:48:34;;;;;;;79.57;35.35;;;;;;;;;;5054501;28;20041;-73
2022/03/03 06:51:04;;;;;;;77.53;34.60;;;1.00;99.90;;;;;;5037591;28;20044;-73
2022/03/03 06:53:31;;;;;;;78.57;34.85;;;;;;;;;;5037646;28;20052;-73
2022/03/03 06:56:15;;;;;;;80.70;33.92;;;;;;;;;;5050341;28;20734;-73
2022/03/03 06:58:42;;;;;;;75.55;33.17;;;;;;;;;;5074715;28;20038;-73
2022/03/03 07:01:09;;;;;;;74.55;33.88;;;1.10;99.90;;;;;;5052835;28;20053;-74
2022/03/03 07:03:36;;;;;;;86.97;35.17;;;;;;;;;;5054096;28;20037;-72
2022/03/03 07:06:03;;;;;;;78.00;33.72;;;1.00;99.90;;;;;;5053034;28;20037;-72
2022/03/03 07:08:31;;;;;;;75.13;33.42;;;1.20;99.90;;;;;;5036368;28;20040;-72
2022/03/03 07:10:58;;;;;;;74.22;33.70;;;;;;;;;;5052926;28;20041;-72
2022/03/03 07:13:24;;;;;;;76.10;35.03;;;;;;;;;;5051713;28;20036;-72
2022/03/03 07:15:59;;;;;;;76.20;35.08;;;1.30;99.90;;;;;;5052627;28;20481;-72
2022/03/03 07:18:38;;;;;;;68.95;31.63;;;1.30;99.90;;;;;;5053066;28;20088;-72
2022/03/03 07:21:04;;;;;;;72.70;34.03;;;;;;;;;;5052501;28;20044;-72
2022/03/03 07:23:36;;;;;;;78.07;35.55;;;1.30;99.90;;;;;;5036205;28;20394;-72
2022/03/03 07:26:04;;;;;;;76.72;36.13;;;1.30;99.90;;;;;;5036068;28;20029;-72
2022/03/03 07:28:31;;;;;;;79.15;34.42;;;1.40;99.90;;;;;;5052141;28;20401;-73
2022/03/03 07:31:02;;;;;;;81.43;34.00;;;1.50;99.90;;;;;;5052545;28;20422;-75
2022/03/03 07:33:54;;;;;;;73.57;33.13;;;1.60;99.90;;;;;;5051247;28;20490;-73
2022/03/03 07:36:25;;;;;;;71.20;33.17;;;1.60;99.90;;;;;;5035784;28;20029;-73
2022/03/03 07:39:05;;;;;;;73.47;33.53;;;1.50;99.90;;;;;;5052169;28;20558;-74
2022/03/03 07:41:32;;;;;;;69.25;33.25;;;1.50;99.90;;;;;;5052373;28;20120;-73
2022/03/03 07:43:59;;;;;;;70.22;33.45;;;1.60;99.90;;;;;;5052093;28;20029;-74
2022/03/03 07:46:27;;;;;;;71.70;33.88;;;1.50;99.90;;;;;;5049916;28;20053;-73
2022/03/03 07:48:56;;;;;;;69.45;32.55;;;;;;;;;;5051947;28;20037;-73
2022/03/03 07:51:23;;;;;;;70.25;33.50;;;1.70;99.90;;;;;;5051876;28;20037;-72
2022/03/03 07:53:49;;;;;;;77.68;34.92;;;;;;;;;;5052484;28;20099;-72
2022/03/03 07:56:27;;;;;;;72.05;34.05;;;2.00;99.90;;;;;;5052280;28;20048;-72
2022/03/03 07:59:01;;;;;;;70.47;32.95;;;2.10;99.90;;;;;;5051732;28;20076;-72
2022/03/03 08:01:30;;;;;;;70.50;31.95;;;1.90;99.90;;;;;;5051406;28;20037;-73
2022/03/03 08:03:56;;;;;;;74.35;32.60;;;;;;;;;;5051757;28;20462;-73
2022/03/03 08:06:23;;;;;;;68.28;33.15;;;2.20;99.90;;;;;;5034332;28;20045;-72
2022/03/03 08:08:49;;;;;;;69.70;32.80;;;;;;;;;;5051149;28;20049;-71
2022/03/03 08:11:16;;;;;;;72.70;32.65;;;2.30;99.90;;;;;;5032260;28;20475;-71
2022/03/03 08:13:43;;;;;;;76.75;33.13;;;2.20;99.90;;;;;;5053275;28;20048;-72
2022/03/03 08:16:09;;;;;;;67.78;30.90;;;;;;;;;;5052766;28;20504;-72
2022/03/03 08:18:36;;;;;;;63.72;31.33;;;2.30;99.90;;;;;;5020127;28;20041;-72
2022/03/03 08:21:04;;;;;;;65.78;33.13;;;2.20;99.90;;;;;;5052498;28;20109;-72
2022/03/03 08:23:30;;;;;;;65.18;32.67;;;;;;;;;;5052584;28;20048;-73
2022/03/03 08:25:57;;;;;;;68.40;32.75;;;2.30;99.90;;;;;;5052412;28;20039;-73
2022/03/03 08:28:24;;;;;;;66.97;31.30;;;;;;;;;;5052792;28;20393;-73
2022/03/03 08:31:10;;;;;;;66.45;31.15;;;2.50;99.90;;;;;;5052395;28;20123;-73
2022/03/03 08:33:42;;;;;;;67.18;31.67;;;;;;;;;;5035615;28;20619;-73
2022/03/03 08:36:20;;;;;;;67.65;32.08;;;2.80;99.90;;;;;;5052566;28;20059;-73
2022/03/03 08:38:50;;;;;;;63.33;30.10;;;;;;;;;;5035997;28;20128;-72
2022/03/03 08:41:22;;;;;;;69.35;31.25;;;2.90;99.90;;;;;;5052262;28;20041;-72
2022/03/03 08:43:52;;;;;;;65.15;31.35;;;3.00;99.90;;;;;;5052554;28;20049;-72
2022/03/03 08:46:23;;;;;;;64.53;29.75;;;3.10;99.90;;;;;;5052512;28;20060;-72
2022/03/03 08:48:50;;;;;;;65.43;32.17;;;;;;;;;;5052846;28;20076;-72
2022/03/03 08:51:19;;;;;;;62.03;29.75;;;;;;;;;;5052208;28;20080;-72
2022/03/03 08:53:45;;;;;;;63.65;29.75;;;;;;;;;;5052171;28;20041;-72
2022/03/03 08:56:11;;;;;;;59.72;29.80;;;;;;;;;;5052147;28;20041;-72
2022/03/03 08:58:38;;;;;;;64.72;30.02;;;;;;;;;;5035899;28;20049;-72
2022/03/03 09:01:04;;;;;;;63.45;30.77;;;;;;;;;;5052438;28;20080;-72
2022/03/03 09:03:30;;;;;;;61.15;28.77;;;;;;;;;;5051631;28;20144;-72
2022/03/03 09:05:56;;;;;;;60.20;28.85;;;;;;;;;;5035885;28;20033;-72
2022/03/03 09:08:23;;;;;;;61.25;30.30;;;;;;;;;;5035427;28;20029;-72
2022/03/03 09:10:49;;;;;;;61.13;29.80;;;;;;;;;;5052433;28;20466;-73
2022/03/03 09:13:16;;;;;;;59.60;28.55;;;;;;;;;;5052315;28;20040;-73
2022/03/03 09:15:42;;;;;;;56.08;28.77;;;;;;;;;;5052009;28;20383;-73
2022/03/03 09:18:08;;;;;;;59.08;29.73;;;3.70;99.90;;;;;;5051827;28;20051;-73
2022/03/03 09:20:35;;;;;;;54.75;28.15;;;;;;;;;;5052986;28;20040;-73
2022/03/03 09:23:02;;;;;;;55.00;29.20;;;4.00;99.90;;;;;;5051794;28;20045;-73
2022/03/03 09:25:28;;;;;;;55.13;27.70;;;;;;;;;;5035461;28;20041;-73
2022/03/03 09:27:55;;;;;;;52.13;27.83;;;4.20;99.90;;;;;;5052321;28;20094;-73
2022/03/03 09:30:21;;;;;;;57.30;27.58;;;;;;;;;;5051940;28;20443;-74
2022/03/03 09:32:47;;;;;;;55.20;27.55;;;4.20;99.90;;;;;;5034915;28;20048;-73
2022/03/03 09:35:14;;;;;;;58.17;28.75;;;;;;;;;;5051681;28;20045;-73
2022/03/03 09:37:40;;;;;;;55.80;27.45;;;;;;;;;;5055099;28;20041;-73
2022/03/03 09:40:08;;;;;;;52.55;26.50;;;3.80;99.90;;;;;;5055606;28;20044;-73
2022/03/03 09:42:35;;;;;;;49.47;25.98;;;;;;;;;;5055563;28;20489;-72
2022/03/03 09:45:05;;;;;;;55.25;26.67;;;4.50;99.90;;;;;;5055838;28;20083;-72
2022/03/03 09:47:31;;;;;;;49.03;25.90;;;;;;;;;;5055743;28;20052;-72
2022/03/03 09:49:57;;;;;;;58.10;28.55;;;;;;;;;;5055482;28;20374;-72
2022/03/03 09:52:23;;;;;;;47.15;24.83;;;4.70;99.90;;;;;;5055784;28;20048;-74
2022/03/03 09:54:54;;;;;;;47.22;25.27;;;5.00;99.90;;;;;;5039107;28;20469;-73
2022/03/03 09:57:20;;;;;;;45.92;24.20;;;;;;;;;;5056231;28;20048;-73
2022/03/03 09:59:47;;;;;;;43.75;24.45;;;;;;;;;;5038955;28;20384;-73
2022/03/03 10:02:13;;;;;;;46.17;24.13;;;;;;;;;;5055375;28;20099;-73
2022/03/03 10:04:39;;;;;;;48.70;25.23;;;;;;;;;;5038563;28;20041;-73
2022/03/03 10:07:07;;;;;;;51.17;25.23;;;5.40;99.90;;;;;;5055340;28;20095;-77
2022/03/03 10:09:59;;;;;;;46.80;24.05;;;5.60;99.90;;;;;;5053706;28;20045;-74
2022/03/03 10:12:22;;;;;;;44.75;23.77;;;;;;;;;;5068521;28;20045;-71
2022/03/03 10:14:48;;;;;;;46.80;23.67;;;;;;;;;;5047911;28;20048;-71
2022/03/03 10:17:15;;;;;;;45.47;23.45;;;5.80;99.90;;;;;;5040398;28;20102;-71
2022/03/03 10:19:56;;;;;;;47.53;25.25;;;;;;;;;;5054670;28;20052;-71
2022/03/03 10:22:37;;;;;;;46.83;24.13;;;6.10;99.90;;;;;;5018472;28;20038;-71
2022/03/03 10:25:03;;;;;;;42.75;23.05;;;6.00;99.90;;;;;;5044049;28;20393;-71
2022/03/03 10:27:31;;;;;;;45.10;22.70;;;;;;;;;;5038613;28;20506;-71
2022/03/03 10:29:57;;;;;;;40.53;22.85;;;;;;;;;;5054290;28;20045;-71
2022/03/03 10:32:24;;;;;;;43.40;23.52;;;;;;;;;;5054770;28;20047;-70
2022/03/03 10:34:53;;;;;;;43.63;24.45;;;;;;;;;;5038522;28;20102;-72
2022/03/03 10:37:23;;;;;;;43.75;22.65;;;;;;;;;;5054582;28;20443;-73
2022/03/03 10:40:00;;;;;;;45.75;23.38;;;6.40;99.90;;;;;;5038020;28;20441;-73
2022/03/03 10:42:26;;;;;;;49.17;23.75;;;;;;;;;;5054135;28;20127;-72
2022/03/03 10:45:15;;;;;;;43.50;23.25;;;6.60;99.90;;;;;;5054419;28;20473;-72
2022/03/03 10:47:46;;;;;;;41.25;23.45;;;6.80;99.90;;;;;;5017827;28;20107;-72
2022/03/03 10:50:12;;;;;;;42.75;24.17;;;;;;;;;;5034351;28;20559;-72
2022/03/03 10:52:40;;;;;;;48.03;24.08;;;;;;;;;;5053595;28;20094;-72
2022/03/03 10:55:13;;;;;;;43.17;23.23;;;7.20;99.90;;;;;;5054068;28;20048;-72
2022/03/03 10:57:39;;;;;;;43.90;23.48;;;;;;;;;;5036942;28;20509;-72
2022/03/03 11:00:10;;;;;;;43.30;22.52;;;7.20;99.90;;;;;;5054062;28;20033;-72
2022/03/03 11:02:37;;;;;;;47.78;23.70;;;;;;;;;;5053818;28;20048;-72
2022/03/03 11:05:03;;;;;;;42.50;22.60;;;;;;;;;;5054309;28;20377;-72
2022/03/03 11:07:30;;;;;;;41.95;22.27;;;;;;;;;;5053628;28;20052;-72
2022/03/03 11:09:56;;;;;;;35.97;20.65;;;;;;;;;;5053600;28;20037;-72
2022/03/03 11:12:22;;;;;;;36.20;20.55;;;;;;;;;;5051766;28;20485;-72
2022/03/03 11:14:49;;;;;;;35.25;20.58;;;;;;;;;;5053350;28;20563;-72
2022/03/03 11:17:15;;;;;;;39.40;20.50;;;;;;;;;;5053528;28;20537;-72
2022/03/03 11:19:42;;;;;;;31.95;19.35;;;8.00;99.90;;;;;;5053847;28;20049;-71
2022/03/03 11:22:08;;;;;;;36.65;19.67;;;;;;;;;;5053498;28;20045;-71
2022/03/03 11:24:37;;;;;;;39.05;19.20;;;8.00;99.90;;;;;;5053732;28;20097;-71
2022/03/03 11:27:04;;;;;;;33.00;19.35;;;8.20;99.90;;;;;;5053421;28;20501;-71
2022/03/03 11:29:32;;;;;;;35.55;18.70;;;;;;;;;;5053128;28;20063;-71
2022/03/03 11:32:07;;;;;;;25.30;14.50;;;8.50;98.40;;;;;;5053396;28;20052;-70
2022/03/03 11:34:33;;;;;;;36.78;19.33;;;;;;;;;;5053753;28;20049;-71
2022/03/03 11:37:03;;;;;;;33.90;20.02;;;8.80;99.00;;;;;;5053254;28;20037;-70
2022/03/03 11:39:52;;;;;;;32.38;18.38;;;8.80;97.90;;;;;;5036703;28;20432;-71
2022/03/03 11:42:18;;;;;;;35.63;20.02;;;;;;;;;;5052107;28;20036;-71
2022/03/03 11:44:44;;;;;;;34.78;19.17;;;;;;;;;;5053347;28;20037;-70
2022/03/03 11:47:19;;;;;;;32.65;18.95;;;9.20;97.40;;;;;;5052915;28;20159;-71
2022/03/03 11:50:08;;;;;;;29.65;17.95;;;9.40;96.90;;;;;;5053215;28;20397;-71
2022/03/03 11:52:35;;;;;;;33.10;18.77;;;9.40;97.90;;;;;;5052626;28;20052;-70
2022/03/03 11:55:46;;;;;;;38.83;18.25;;;9.50;97.10;;;;;;5053346;28;20052;-71
2022/03/03 11:58:18;;;;;;;35.45;18.02;;;9.70;97.10;;;;;;5050870;28;20071;-71
2022/03/03 12:00:58;;;;;;;28.85;16.38;;;9.80;97.30;;;;;;5035739;28;20508;-71
2022/03/03 12:03:25;;;;;;;27.20;16.02;;;9.80;96.90;;;;;;5053012;28;20527;-71
2022/03/03 12:06:08;;;;;;;30.05;17.08;;;10.00;96.40;;;;;;5054191;28;20048;-71
2022/03/03 12:08:37;;;;;;;28.33;16.42;;;10.30;97.00;;;;;;5053150;28;20049;-71
2022/03/03 12:11:03;;;;;;;29.35;17.23;;;;;;;;;;5052826;28;20073;-71
2022/03/03 12:13:42;;;;;;;27.98;16.83;;;10.30;96.60;;;;;;5052748;28;20391;-71
2022/03/03 12:16:33;;;;;;;26.13;15.50;;;10.40;95.10;;;;;;5052840;28;20059;-71
2022/03/03 12:19:03;;;;;;;26.33;14.40;;;;;;;;;;5052269;28;20037;-71
2022/03/03 12:21:47;;;;;;;25.20;14.50;;;10.50;96.00;;;;;;5050590;28;20089;-71
2022/03/03 12:24:13;;;;;;;27.58;14.45;;;;;;;;;;5052753;28;20041;-71
2022/03/03 12:26:55;;;;;;;28.63;15.70;;;;;;;;;;5036425;28;20388;-71
2022/03/03 12:29:49;;;;;;;25.67;14.70;;;10.90;95.00;;;;;;5053149;28;20524;-71
2022/03/03 12:32:32;;;;;;;24.58;14.52;;;;;;;;;;5052628;28;20059;-71
2022/03/03 12:35:09;;;;;;;22.73;13.35;;;11.00;95.40;;;;;;5052310;28;20045;-71
2022/03/03 12:37:40;;;;;;;24.35;13.88;;;;;;;;;;5052306;28;20049;-71
2022/03/03 12:40:06;;;;;;;25.73;13.77;;;11.40;96.10;;;;;;5052214;28;20041;-71
2022/03/03 12:42:33;;;;;;;25.08;14.68;;;11.40;94.60;;;;;;5051443;28;20531;-71
2022/03/03 12:45:07;;;;;;;26.88;14.27;;;;;;;;;;5034293;28;20045;-71
2022/03/03 12:47:42;;;;;;;25.45;14.50;;;11.80;95.10;;;;;;5049973;28;20049;-70
2022/03/03 12:50:19;;;;;;;25.98;14.55;;;11.70;93.60;;;;;;5051452;28;20045;-70
2022/03/03 12:52:58;;;;;;;34.80;17.02;;;12.40;97.70;;;;;;5051193;28;20091;-70
2022/03/03 12:55:31;;;;;;;28.17;16.83;;;;;;;;;;5051676;28;20128;-70
2022/03/03 12:57:57;;;;;;;30.75;17.17;;;;;;;;;;5051642;28;20056;-71
2022/03/03 13:00:24;;;;;;;37.22;18.35;;;;;;;;;;5051740;28;20060;-71
2022/03/03 13:02:59;;;;;;;34.35;17.25;;;12.00;94.00;;;;;;5051461;28;20051;-70
2022/03/03 13:05:33;;;;;;;34.78;19.77;;;12.20;92.60;;;;;;5051150;28;20611;-70
2022/03/03 13:07:59;;;;;;;31.45;18.63;;;;;;;;;;5051621;28;20076;-70
2022/03/03 13:10:25;;;;;;;33.88;19.25;;;;;;;;;;5050460;28;20037;-72
2022/03/03 13:12:56;;;;;;;31.23;18.35;;;12.30;92.80;;;;;;5050744;28;20077;-72
2022/03/03 13:15:29;;;;;;;35.20;18.60;;;12.50;92.80;;;;;;5051255;28;20048;-72
2022/03/03 13:17:57;;;;;;;31.10;16.38;;;12.40;93.50;;;;;;5051310;28;20107;-72
2022/03/03 13:20:24;;;;;;;29.30;17.00;;;;;;;;;;5034350;28;20048;-72
2022/03/03 13:22:50;;;;;;;31.70;16.30;;;;;;;;;;5050813;28;20123;-72
2022/03/03 13:25:19;;;;;;;27.17;15.45;;;12.70;93.20;;;;;;5051009;28;20144;-71
2022/03/03 13:27:47;;;;;;;27.40;15.48;;;12.90;92.80;;;;;;5051162;28;20106;-72
2022/03/03 13:30:14;;;;;;;23.20;13.98;;;13.30;96.40;;;;;;5050824;28;20504;-72
2022/03/03 13:32:49;;;;;;;26.48;14.60;;;12.80;92.00;;;;;;5051257;28;20049;-72
2022/03/03 13:35:15;;;;;;;25.88;14.73;;;;;;;;;;5034388;28;20482;-72
2022/03/03 13:37:42;;;;;;;26.77;14.80;;;;;;;;;;5050770;28;20076;-72
2022/03/03 13:40:23;;;;;;;28.95;16.80;;;12.20;94.50;;;;;;5051011;28;20048;-72
2022/03/03 13:42:57;;;;;;;30.73;17.30;;;13.00;95.70;;;;;;5050603;28;20041;-73